Time;durP1;ratioP1;P1;durP2;ratioP2;P2;SDS_P1;SDS_P2;PMS_P1;PMS_P2;Temp;Humidity;BMP_temperature;BMP_pressure;BME280_temperature;BME280_humidity;BME280_pressure;Samples;Min_cycle;Max_cycle;Signal;HPM_P1;HPM_P2
2022/01/14 00:00:32;;;;;;;;;;;;;;;20.51;40.66;103659.53;4979712;28;19928;-88
2022/01/14 00:02:58;;;;;;;;;;;;;;;20.52;40.71;103665.84;5008157;28;19980;-83
2022/01/14 00:05:23;;;;;;;;;;;;;;;20.51;40.73;103658.66;4990908;28;19926;-83
2022/01/14 00:07:48;;;;;;;;;;;;;;;20.52;40.80;103649.38;4987794;28;20297;-83
2022/01/14 00:10:14;;;;;;;;;;;;;;;20.50;40.91;103649.59;4986242;28;19957;-82
2022/01/14 00:12:47;;;;;;;;;;;;;;;20.50;40.61;103646.84;4991691;28;19925;-83
2022/01/14 00:15:35;;;;;;;;;;;;;;;20.50;40.79;103646.84;4974371;28;19926;-82
2022/01/14 00:17:57;;;;;;;;;;;;;;;20.50;40.62;103637.78;4990498;28;19960;-82
2022/01/14 00:20:23;;;;;;;;;;;;;;;20.50;40.66;103637.78;4990558;28;19956;-82
2022/01/14 00:22:49;;;;;;;;;;;;;;;20.48;40.81;103631.69;5008032;28;19921;-83
2022/01/14 00:33:26;;;;;;;;;;;;;;;20.46;40.79;103612.72;4993257;28;20282;-83
2022/01/14 00:35:51;;;;;;;;;;;;;;;20.45;40.75;103624.78;4992623;28;19922;-82
2022/01/14 00:38:16;;;;;;;;;;;;;;;20.43;40.81;103615.94;4987840;28;19933;-83
2022/01/14 00:40:42;;;;;;;;;;;;;;;20.44;40.96;103612.13;4985534;28;19962;-83
2022/01/14 00:43:08;;;;;;;;;;;;;;;20.43;40.43;103604.13;5002110;28;19930;-82
2022/01/14 00:45:34;;;;;;;;;;;;;;;20.42;40.65;103606.03;4992318;28;19991;-83
2022/01/14 00:48:01;;;;;;;;;;;;;;;20.39;40.50;103603.78;4990880;28;20382;-83
2022/01/14 00:50:27;;;;;;;;;;;;;;;20.40;40.76;103602.69;5006872;28;20488;-83
2022/01/14 00:52:52;;;;;;;;;;;;;;;20.40;40.83;103596.38;4990608;28;19933;-82
2022/01/14 00:55:25;;;;;;;;;;;;;;;20.39;41.00;103594.72;4973962;28;19933;-83
2022/01/14 01:00:27;;;;;;;;;;;;;;;20.38;40.77;103591.09;5002939;28;19933;-83
2022/01/14 01:02:52;;;;;;;;;;;;;;;20.37;40.51;103588.63;4991258;28;19922;-83
2022/01/14 01:05:19;;;;;;;;;;;;;;;20.36;40.81;103584.19;4989644;28;19930;-84
2022/01/14 01:07:48;;;;;;;;;;;;;;;20.36;40.60;103585.03;4990615;28;19929;-83
2022/01/14 01:10:13;;;;;;;;;;;;;;;20.35;40.69;103583.34;4987904;28;20071;-83
2022/01/14 01:12:49;;;;;;;;;;;;;;;20.35;40.63;103579.78;4987335;28;20430;-82
2022/01/14 01:15:16;;;;;;;;;;;;;;;20.34;40.62;103580.88;4989966;28;20056;-83
2022/01/14 01:17:42;;;;;;;;;;;;;;;20.32;40.51;103570.94;4991317;28;19981;-83
2022/01/14 01:20:17;;;;;;;;;;;;;;;20.32;40.70;103581.09;4994465;28;19926;-83
2022/01/14 01:22:43;;;;;;;;;;;;;;;20.32;40.49;103575.59;4994213;28;19945;-84
2022/01/14 01:25:10;;;;;;;;;;;;;;;20.30;40.49;103578.59;4995375;28;19957;-83
2022/01/14 01:27:41;;;;;;;;;;;;;;;20.31;40.54;103577.53;4993330;28;19926;-83
2022/01/14 01:30:14;;;;;;;;;;;;;;;20.29;40.55;103574.19;4994836;28;19932;-83
2022/01/14 01:32:39;;;;;;;;;;;;;;;20.29;40.44;103571.44;4993595;28;19926;-83
2022/01/14 01:35:05;;;;;;;;;;;;;;;20.27;40.44;103565.34;4993520;28;19945;-83
2022/01/14 01:37:30;;;;;;;;;;;;;;;20.27;40.77;103570.84;4994789;28;19921;-83
2022/01/14 01:39:55;;;;;;;;;;;;;;;20.26;40.40;103568.31;5009042;28;19917;-84
2022/01/14 01:42:26;;;;;;;;;;;;;;;20.26;40.68;103569.19;4993206;28;19957;-83
2022/01/14 01:44:52;;;;;;;;;;;;;;;20.25;40.47;103566.66;4977909;28;19926;-84
2022/01/14 01:47:19;;;;;;;;;;;;;;;20.24;40.55;103573.22;4994430;28;19945;-82
2022/01/14 01:49:44;;;;;;;;;;;;;;;20.24;40.69;103567.75;5010145;28;20012;-84
2022/01/14 01:52:09;;;;;;;;;;;;;;;20.23;40.49;103569.63;4977731;28;20013;-83
2022/01/14 01:54:35;;;;;;;;;;;;;;;20.22;40.75;103567.97;4996292;28;19929;-83
2022/01/14 01:57:00;;;;;;;;;;;;;;;20.21;40.31;103558.09;4994154;28;19926;-83
2022/01/14 01:59:26;;;;;;;;;;;;;;;20.21;40.61;103566.31;4993179;28;19930;-83
2022/01/14 02:01:52;;;;;;;;;;;;;;;20.19;40.43;103568.44;5007190;28;19933;-83
2022/01/14 02:04:17;;;;;;;;;;;;;;;20.19;40.66;103567.63;4990655;28;19922;-83
2022/01/14 02:06:43;;;;;;;;;;;;;;;20.18;40.45;103565.94;4993686;28;19917;-82
2022/01/14 02:09:09;;;;;;;;;;;;;;;20.18;40.65;103565.94;5009189;28;19972;-83
2022/01/14 02:11:34;;;;;;;;;;;;;;;20.16;40.62;103560.72;4992407;28;19964;-83
2022/01/14 02:14:04;;;;;;;;;;;;;;;20.16;40.64;103559.84;4992517;28;19965;-84
2022/01/14 02:16:58;;;;;;;;;;;;;;;20.16;40.47;103554.34;5009040;28;19922;-83
2022/01/14 02:19:27;;;;;;;;;;;;;;;20.15;40.60;103563.69;4994737;28;19925;-83
2022/01/14 02:22:13;;;;;;;;;;;;;;;20.14;40.64;103554.63;4992879;28;19935;-84
2022/01/14 02:27:05;;;;;;;;;;;;;;;20.12;40.39;103544.94;4994030;28;19934;-83
2022/01/14 02:29:30;;;;;;;;;;;;;;;20.10;40.23;103537.78;5008127;28;19992;-84
2022/01/14 02:31:55;;;;;;;;;;;;;;;20.10;40.41;103535.03;4981238;28;19968;-83
2022/01/14 02:34:21;;;;;;;;;;;;;;;20.10;40.62;103525.97;4973201;28;19926;-83
2022/01/14 02:36:47;;;;;;;;;;;;;;;20.09;40.42;103530.63;4979364;28;19929;-83
2022/01/14 02:39:14;;;;;;;;;;;;;;;20.09;40.47;103530.63;4987123;28;19926;-83
2022/01/14 02:41:41;;;;;;;;;;;;;;;20.08;40.44;103522.63;4993987;28;19991;-84
2022/01/14 02:44:08;;;;;;;;;;;;;;;20.07;40.41;103513.56;4991630;28;19929;-83
2022/01/14 02:46:38;;;;;;;;;;;;;;;20.06;40.36;103522.88;5008983;28;19922;-83
2022/01/14 02:49:04;;;;;;;;;;;;;;;20.06;40.16;103524.81;5003651;28;19926;-84
2022/01/14 02:51:29;;;;;;;;;;;;;;;20.05;40.26;103517.63;4993546;28;20125;-83
2022/01/14 02:53:58;;;;;;;;;;;;;;;20.05;40.21;103523.13;5009266;28;19929;-83
2022/01/14 02:56:26;;;;;;;;;;;;;;;20.04;40.41;103515.97;4983141;28;19983;-83
2022/01/14 02:58:52;;;;;;;;;;;;;;;20.04;40.33;103526.94;5007541;28;19922;-83
2022/01/14 03:01:21;;;;;;;;;;;;;;;20.03;40.11;103519.75;4989987;28;20386;-83
2022/01/14 03:03:47;;;;;;;;;;;;;;;20.03;40.27;103519.75;4993340;28;20878;-82
2022/01/14 03:06:14;;;;;;;;;;;;;;;20.02;40.12;103526.34;4991600;28;19926;-84
2022/01/14 03:08:40;;;;;;;;;;;;;;;20.01;40.25;103527.44;5008873;28;19928;-83
2022/01/14 03:11:06;;;;;;;;;;;;;;;20.00;40.04;103523.00;5006618;28;19944;-83
2022/01/14 03:13:31;;;;;;;;;;;;;;;20.00;40.13;103520.25;4992802;28;20500;-83
2022/01/14 03:15:57;;;;;;;;;;;;;;;19.99;40.16;103518.59;5007929;28;19929;-82
2022/01/14 03:18:32;;;;;;;;;;;;;;;19.99;39.99;103518.59;4990447;28;20044;-83
2022/01/14 03:21:09;;;;;;;;;;;;;;;19.99;40.26;103521.34;4988824;28;19922;-83
2022/01/14 03:23:42;;;;;;;;;;;;;;;19.97;40.06;103510.59;4992365;28;20343;-82
2022/01/14 03:26:08;;;;;;;;;;;;;;;19.96;40.07;103511.69;4992488;28;19925;-83
2022/01/14 03:28:33;;;;;;;;;;;;;;;19.96;40.19;103513.56;5007701;28;19933;-83
2022/01/14 03:30:58;;;;;;;;;;;;;;;19.95;40.11;103520.13;4975025;28;19976;-83
2022/01/14 03:33:23;;;;;;;;;;;;;;;19.94;40.21;103523.97;4993199;28;19969;-83
2022/01/14 03:35:49;;;;;;;;;;;;;;;19.93;40.06;103517.63;4987520;28;20294;-84
2022/01/14 03:38:14;;;;;;;;;;;;;;;19.92;40.13;103512.38;4973549;28;19933;-85
2022/01/14 03:40:40;;;;;;;;;;;;;;;19.92;40.04;103515.97;5003394;28;19932;-84
2022/01/14 03:43:05;;;;;;;;;;;;;;;19.92;39.98;103512.38;4984274;28;20326;-84
2022/01/14 03:45:31;;;;;;;;;;;;;;;19.89;40.05;103516.44;4991591;28;19922;-83
2022/01/14 03:47:56;;;;;;;;;;;;;;;19.88;39.99;103518.34;4991387;28;19922;-84
2022/01/14 03:50:21;;;;;;;;;;;;;;;19.88;40.23;103522.97;4990966;28;19933;-83
2022/01/14 03:52:47;;;;;;;;;;;;;;;19.87;40.12;103522.16;5005875;28;20509;-83
2022/01/14 03:55:12;;;;;;;;;;;;;;;19.87;40.28;103524.91;5005520;28;19933;-83
2022/01/14 03:57:37;;;;;;;;;;;;;;;19.86;40.20;103523.25;4991438;28;19922;-83
2022/01/14 04:00:03;;;;;;;;;;;;;;;19.84;40.17;103514.41;5007565;28;20373;-83
2022/01/14 04:02:29;;;;;;;;;;;;;;;19.84;40.12;103519.06;4983347;28;19933;-83
2022/01/14 04:04:54;;;;;;;;;;;;;;;19.83;40.16;103531.94;4993558;28;19925;-83
2022/01/14 04:07:19;;;;;;;;;;;;;;;19.82;40.01;103518.47;4991012;28;19972;-85
2022/01/14 04:09:44;;;;;;;;;;;;;;;19.82;40.07;103521.19;4992121;28;19925;-83
2022/01/14 04:12:16;;;;;;;;;;;;;;;19.81;40.15;103517.63;5003494;28;19922;-83
2022/01/14 04:17:10;;;;;;;;;;;;;;;19.80;40.04;103509.63;4987369;28;19934;-83
2022/01/14 04:19:35;;;;;;;;;;;;;;;19.79;40.29;103507.97;4989170;28;19926;-84
2022/01/14 04:22:01;;;;;;;;;;;;;;;19.78;40.17;103507.16;4988813;28;20378;-83
2022/01/14 04:24:26;;;;;;;;;;;;;;;19.78;40.25;103511.78;5006921;28;20272;-83
2022/01/14 04:26:51;;;;;;;;;;;;;;;19.76;40.14;103517.50;4988805;28;19933;-83
2022/01/14 04:29:17;;;;;;;;;;;;;;;19.76;40.14;103509.28;4991033;28;19922;-82
2022/01/14 04:31:42;;;;;;;;;;;;;;;19.75;40.13;103504.84;4991086;28;19932;-83
2022/01/14 04:34:07;;;;;;;;;;;;;;;19.75;40.11;103510.34;4993296;28;20292;-83
2022/01/14 04:36:33;;;;;;;;;;;;;;;19.73;39.99;103498.78;4982856;28;19929;-83
2022/01/14 04:38:58;;;;;;;;;;;;;;;19.73;40.20;103492.44;4990062;28;19969;-83
2022/01/14 04:41:23;;;;;;;;;;;;;;;19.73;40.08;103492.44;4970604;28;20307;-84
2022/01/14 04:43:49;;;;;;;;;;;;;;;19.72;40.19;103486.13;4988457;28;19958;-83
2022/01/14 04:46:46;;;;;;;;;;;;;;;19.70;39.97;103482.78;5001644;28;19929;-82
2022/01/14 04:48:59;;;;;;;;;;;;;;;19.70;39.90;103490.19;4983550;28;20330;-83
2022/01/14 04:51:24;;;;;;;;;;;;;;;19.69;40.02;103478.38;5004528;28;19926;-84
2022/01/14 04:53:50;;;;;;;;;;;;;;;19.69;40.11;103475.66;4989970;28;19922;-82
2022/01/14 04:56:15;;;;;;;;;;;;;;;19.68;40.03;103468.50;4960673;28;20004;-83
2022/01/14 04:58:40;;;;;;;;;;;;;;;19.67;40.12;103470.38;4989134;28;20390;-83
2022/01/14 05:01:05;;;;;;;;;;;;;;;19.67;40.11;103466.81;4987746;28;20361;-83
2022/01/14 05:03:31;;;;;;;;;;;;;;;19.67;40.03;103466.81;4999372;28;19926;-83
2022/01/14 05:05:59;;;;;;;;;;;;;;;19.66;40.09;103459.66;5007031;28;19945;-83
2022/01/14 05:08:34;;;;;;;;;;;;;;;19.64;40.10;103459.88;4999911;28;19933;-84
2022/01/14 05:13:24;;;;;;;;;;;;;;;19.64;39.94;103462.63;4998667;28;19926;-83
2022/01/14 05:15:50;;;;;;;;;;;;;;;19.64;39.99;103456.31;4996181;28;20429;-83
2022/01/14 05:18:15;;;;;;;;;;;;;;;19.63;40.13;103447.25;4991584;28;19922;-83
2022/01/14 05:20:40;;;;;;;;;;;;;;;19.62;39.92;103442.81;4984131;28;19926;-83
2022/01/14 05:23:05;;;;;;;;;;;;;;;19.63;39.98;103446.38;4990601;28;19926;-83
2022/01/14 05:25:31;;;;;;;;;;;;;;;19.62;39.98;103445.56;4989254;28;20404;-84
2022/01/14 05:27:56;;;;;;;;;;;;;;;19.61;39.94;103445.81;4990428;28;19928;-84
2022/01/14 05:30:21;;;;;;;;;;;;;;;19.61;40.09;103443.06;4987825;28;19930;-83
2022/01/14 05:32:48;;;;;;;;;;;;;;;19.59;40.06;103439.72;4989417;28;19933;-83
2022/01/14 05:35:17;;;;;;;;;;;;;;;19.58;39.95;103444.38;5006701;28;19924;-83
2022/01/14 05:37:42;;;;;;;;;;;;;;;19.59;39.97;103437.81;4991957;28;19926;-83
2022/01/14 05:40:08;;;;;;;;;;;;;;;19.57;39.99;103429.00;4989396;28;19926;-83
2022/01/14 05:42:34;;;;;;;;;;;;;;;19.58;39.96;103440.78;5000686;28;19925;-84
2022/01/14 05:45:00;;;;;;;;;;;;;;;19.57;39.96;103442.69;4973953;28;19932;-83
2022/01/14 05:47:25;;;;;;;;;;;;;;;19.56;40.17;103437.47;4990142;28;20024;-83
2022/01/14 05:49:50;;;;;;;;;;;;;;;19.55;39.91;103436.59;4989049;28;19997;-83
2022/01/14 05:52:15;;;;;;;;;;;;;;;19.55;39.92;103430.31;4989153;28;20416;-83
2022/01/14 05:54:41;;;;;;;;;;;;;;;19.55;39.96;103441.25;4989274;28;19928;-83
2022/01/14 05:57:06;;;;;;;;;;;;;;;19.54;40.02;103439.59;4982780;28;19926;-83
2022/01/14 05:59:31;;;;;;;;;;;;;;;19.54;40.17;103439.59;4978759;28;19926;-84
2022/01/14 06:01:56;;;;;;;;;;;;;;;19.52;39.77;103445.31;4983234;28;19980;-83
2022/01/14 06:04:22;;;;;;;;;;;;;;;19.52;39.93;103444.50;4987772;28;19952;-83
2022/01/14 06:06:47;;;;;;;;;;;;;;;19.51;40.03;103445.56;4990024;28;19926;-83
2022/01/14 06:09:12;;;;;;;;;;;;;;;19.51;40.11;103453.81;5011015;28;20317;-83
2022/01/14 06:11:37;;;;;;;;;;;;;;;19.50;39.88;103439.22;4979385;28;19936;-84
2022/01/14 06:14:03;;;;;;;;;;;;;;;19.49;39.90;103443.06;4990063;28;19948;-85
2022/01/14 06:16:28;;;;;;;;;;;;;;;19.49;40.04;103439.50;4992781;28;19961;-83
2022/01/14 06:18:53;;;;;;;;;;;;;;;19.48;39.97;103435.91;4992627;28;19933;-84
2022/01/14 06:21:19;;;;;;;;;;;;;;;19.47;39.93;103434.22;5008255;28;20016;-83
2022/01/14 06:23:44;;;;;;;;;;;;;;;19.47;39.99;103431.50;5008268;28;19973;-83
2022/01/14 06:26:09;;;;;;;;;;;;;;;19.46;39.95;103425.19;4992810;28;19926;-83
2022/01/14 06:28:34;;;;;;;;;;;;;;;19.45;39.97;103431.75;4993041;28;19926;-84
2022/01/14 06:31:00;;;;;;;;;;;;;;;19.46;40.08;103432.56;4993380;28;20010;-83
2022/01/14 06:33:25;;;;;;;;;;;;;;;19.45;39.95;103436.38;4992303;28;19980;-84
2022/01/14 06:35:51;;;;;;;;;;;;;;;19.44;40.09;103434.72;4974504;28;19926;-83
2022/01/14 06:38:17;;;;;;;;;;;;;;;19.43;40.01;103430.31;4990278;28;20450;-84
2022/01/14 06:40:42;;;;;;;;;;;;;;;19.42;40.15;103432.19;4991809;28;19929;-83
2022/01/14 06:43:07;;;;;;;;;;;;;;;19.41;39.90;103427.78;4992026;28;19929;-83
2022/01/14 06:45:33;;;;;;;;;;;;;;;19.41;40.07;103436.03;4992628;28;20326;-83
2022/01/14 06:47:58;;;;;;;;;;;;;;;19.40;39.95;103428.03;4991820;28;19929;-83
2022/01/14 06:50:25;;;;;;;;;;;;;;;19.39;40.17;103424.44;4993040;28;19921;-83
2022/01/14 06:52:50;;;;;;;;;;;;;;;19.39;40.03;103424.44;5007955;28;19929;-85
2022/01/14 06:55:16;;;;;;;;;;;;;;;19.38;40.02;103436.50;5009561;28;19922;-84
2022/01/14 06:57:41;;;;;;;;;;;;;;;19.38;39.86;103436.50;4990977;28;19926;-85
2022/01/14 07:00:08;;;;;;;;;;;;;;;19.37;39.88;103437.56;4992925;28;20012;-83
2022/01/14 07:02:33;;;;;;;;;;;;;;;19.36;39.75;103443.28;5007498;28;20143;-83
2022/01/14 07:04:58;;;;;;;;;;;;;;;19.29;39.96;103451.59;4988709;28;20370;-81
2022/01/14 07:07:23;;;;;;;;;;;;;;;19.20;39.70;103445.66;4992487;28;19929;-82
2022/01/14 07:09:58;;;;;;;;;;;;;;;19.14;39.99;103453.97;4988097;28;20329;-83
2022/01/14 07:12:24;;;;;;;;;;;;;;;19.09;39.99;103460.13;4997717;28;19930;-85
2022/01/14 07:14:50;;;;;;;;;;;;;;;19.09;39.80;103471.09;4989721;28;19933;-85
2022/01/14 07:17:15;;;;;;;;;;;;;;;19.09;39.63;103470.28;4991566;28;19926;-83
2022/01/14 07:19:40;;;;;;;;;;;;;;;19.10;39.83;103461.81;4973829;28;19926;-85
2022/01/14 07:22:06;;;;;;;;;;;;;;;19.12;39.58;103467.06;5006083;28;19941;-82
2022/01/14 07:24:32;;;;;;;;;;;;;;;19.14;39.33;103457.53;4993129;28;20088;-81
2022/01/14 07:26:57;;;;;;;;;;;;;;;19.16;39.25;103460.03;4986381;28;20058;-82
2022/01/14 07:29:22;;;;;;;;;;;;;;;19.17;39.51;103475.41;4993708;28;20277;-82
2022/01/14 07:31:48;;;;;;;;;;;;;;;19.19;39.17;103473.28;4974396;28;19930;-82
2022/01/14 07:34:13;;;;;;;;;;;;;;;19.21;39.25;103465.66;4985729;28;19932;-82
2022/01/14 07:36:38;;;;;;;;;;;;;;;19.22;39.14;103462.66;4982198;28;20386;-81
2022/01/14 07:39:05;;;;;;;;;;;;;;;19.24;39.07;103451.47;4986619;28;19933;-82
2022/01/14 07:41:32;;;;;;;;;;;;;;;19.24;39.15;103452.31;4987025;28;19976;-83
2022/01/14 07:43:57;;;;;;;;;;;;;;;19.27;39.01;103466.63;4992524;28;20016;-81
2022/01/14 07:46:22;;;;;;;;;;;;;;;19.26;39.12;103463.03;4993444;28;20338;-81
2022/01/14 07:48:48;;;;;;;;;;;;;;;19.27;39.11;103475.66;4991294;28;19929;-82
2022/01/14 07:51:13;;;;;;;;;;;;;;;19.29;38.89;103467.22;4990601;28;19934;-83
2022/01/14 07:53:40;;;;;;;;;;;;;;;19.29;38.85;103464.47;4992523;28;20361;-85
2022/01/14 07:56:07;;;;;;;;;;;;;;;19.29;39.03;103459.84;4987850;28;19932;-82
2022/01/14 07:58:32;;;;;;;;;;;;;;;19.30;38.77;103453.25;4993993;28;20441;-81
2022/01/14 08:00:57;;;;;;;;;;;;;;;19.30;38.88;103457.91;4991208;28;20005;-81
2022/01/14 08:03:22;;;;;;;;;;;;;;;19.31;38.77;103465.91;4992870;28;19953;-81
2022/01/14 08:05:49;;;;;;;;;;;;;;;19.29;38.91;103451.59;4994438;28;20404;-82
2022/01/14 08:08:15;;;;;;;;;;;;;;;19.27;38.84;103445.53;4991645;28;19957;-83
2022/01/14 08:10:40;;;;;;;;;;;;;;;19.27;38.97;103466.63;5002170;28;19968;-83
2022/01/14 08:13:05;;;;;;;;;;;;;;;19.27;39.18;103474.84;4985236;28;20374;-83
2022/01/14 08:15:31;;;;;;;;;;;;;;;19.25;39.15;103486.03;4985121;28;19933;-84
2022/01/14 08:17:58;;;;;;;;;;;;;;;19.23;39.19;103472.56;4990829;28;20301;-81
2022/01/14 08:20:24;;;;;;;;;;;;;;;19.23;39.14;103477.22;4999047;28;19930;-81
2022/01/14 08:22:49;;;;;;;;;;;;;;;19.22;39.13;103470.06;4991183;28;19991;-83
2022/01/14 08:25:14;;;;;;;;;;;;;;;19.22;39.06;103470.06;4991077;28;19933;-82
2022/01/14 08:27:40;;;;;;;;;;;;;;;19.20;39.16;103472.19;4990929;28;20341;-82
2022/01/14 08:30:06;;;;;;;;;;;;;;;19.19;39.17;103465.06;4991033;28;20438;-82
2022/01/14 08:32:32;;;;;;;;;;;;;;;19.17;39.16;103456.22;4988324;28;19922;-81
2022/01/14 08:34:57;;;;;;;;;;;;;;;19.16;39.56;103460.03;4987466;28;20306;-83
2022/01/14 08:37:22;;;;;;;;;;;;;;;19.15;39.46;103447.41;4979327;28;19925;-81
2022/01/14 08:39:47;;;;;;;;;;;;;;;19.15;39.45;103434.56;5004576;28;19929;-85
2022/01/14 08:42:13;;;;;;;;;;;;;;;19.15;39.56;103442.78;4983276;28;19926;-84
2022/01/14 08:44:38;;;;;;;;;;;;;;;19.17;39.71;103434.31;4989339;28;19980;-80
2022/01/14 08:47:05;;;;;;;;;;;;;;;19.18;39.45;103430.50;4989883;28;20374;-84
2022/01/14 08:49:31;;;;;;;;;;;;;;;19.21;39.96;103435.50;4996666;28;19926;-84
2022/01/14 08:51:56;;;;;;;;;;;;;;;19.23;39.94;103439.69;4984892;28;20003;-88
2022/01/14 08:54:21;;;;;;;;;;;;;;;19.26;40.04;103446.59;4989362;28;19929;-87
2022/01/14 08:56:47;;;;;;;;;;;;;;;19.29;40.03;103450.78;4996410;28;20417;-84
2022/01/14 08:59:14;;;;;;;;;;;;;;;19.31;40.26;103457.69;5004317;28;19944;-83
2022/01/14 09:01:41;;;;;;;;;;;;;;;19.34;40.08;103468.19;4990288;28;19917;-83
2022/01/14 09:04:06;;;;;;;;;;;;;;;19.37;40.24;103461.38;4980672;28;19961;-83
2022/01/14 09:06:31;;;;;;;;;;;;;;;19.39;40.29;103471.03;4997486;28;19969;-83
2022/01/14 09:08:57;;;;;;;;;;;;;;;19.42;40.38;103464.25;5005257;28;20433;-83
2022/01/14 09:11:22;;;;;;;;;;;;;;;19.43;40.45;103469.53;4989696;28;20017;-83
2022/01/14 09:13:47;;;;;;;;;;;;;;;19.45;40.68;103453.69;4991115;28;19918;-82
2022/01/14 09:16:12;;;;;;;;;;;;;;;19.48;40.45;103459.72;4987653;28;20329;-83
2022/01/14 09:18:38;;;;;;;;;;;;;;;19.48;40.39;103477.03;4971065;28;21128;-84
2022/01/14 09:21:03;;;;;;;;;;;;;;;19.50;40.42;103461.16;4964756;28;19926;-83
2022/01/14 09:23:29;;;;;;;;;;;;;;;19.52;40.41;103470.00;4984460;28;20357;-83
2022/01/14 09:25:55;;;;;;;;;;;;;;;19.53;40.54;103471.69;4996797;28;19926;-82
2022/01/14 09:28:20;;;;;;;;;;;;;;;19.56;40.54;103470.38;4989960;28;19968;-85
2022/01/14 09:30:46;;;;;;;;;;;;;;;19.56;40.62;103464.88;4989781;28;19922;-86
2022/01/14 09:33:12;;;;;;;;;;;;;;;19.57;40.50;103452.84;4988302;28;20392;-82
2022/01/14 09:35:37;;;;;;;;;;;;;;;19.59;40.43;103467.16;4983375;28;20063;-84
2022/01/14 09:38:03;;;;;;;;;;;;;;;19.61;40.45;103459.53;4970136;28;20382;-84
2022/01/14 09:40:28;;;;;;;;;;;;;;;19.62;40.35;103455.69;4986332;28;19928;-84
2022/01/14 09:43:00;;;;;;;;;;;;;;;19.63;40.57;103454.63;4981223;28;19926;-82
2022/01/14 09:45:25;;;;;;;;;;;;;;;19.63;40.62;103451.88;4993002;28;20285;-86
2022/01/14 09:47:51;;;;;;;;;;;;;;;19.65;40.57;103449.72;4995478;28;19922;-84
2022/01/14 09:50:17;;;;;;;;;;;;;;;19.65;40.48;103447.84;4993183;28;19933;-83
2022/01/14 09:52:44;;;;;;;;;;;;;;;19.66;40.41;103449.50;4994888;28;19925;-82
2022/01/14 09:55:10;;;;;;;;;;;;;;;19.67;40.49;103451.19;4988437;28;19922;-79
2022/01/14 09:57:36;;;;;;;;;;;;;;;19.68;40.33;103463.03;4981198;28;20271;-77
2022/01/14 10:00:05;;;;;;;;;;;;;;;19.69;40.38;103459.19;4992885;28;19929;-82
2022/01/14 10:02:35;;;;;;;;;;;;;;;19.70;40.14;103466.34;4994644;28;19922;-82
2022/01/14 10:05:01;;;;;;;;;;;;;;;19.71;40.43;103458.97;5007997;28;19922;-80
2022/01/14 10:07:27;;;;;;;;;;;;;;;19.70;39.99;103466.34;4993174;28;19936;-85
2022/01/14 10:09:58;;;;;;;;;;;;;;;19.72;40.16;103485.31;5009316;28;19922;-84
2022/01/14 10:12:24;;;;;;;;;;;;;;;19.70;40.00;103482.78;4987715;28;19926;-78
2022/01/14 10:15:06;;;;;;;;;;;;;;;19.70;40.03;103482.78;5007090;28;19926;-78
2022/01/14 10:17:39;;;;;;;;;;;;;;;19.70;40.01;103481.97;4993592;28;19929;-77
2022/01/14 10:20:08;;;;;;;;;;;;;;;19.70;39.74;103493.75;4993537;28;19922;-78
2022/01/14 10:22:35;;;;;;;;;;;;;;;19.69;39.77;103492.09;4993824;28;19926;-77
2022/01/14 10:25:06;;;;;;;;;;;;;;;19.69;39.57;103492.09;4989597;28;19973;-76
2022/01/14 10:27:51;;;;;;;;;;;;;;;19.68;39.46;103487.69;4985931;28;19925;-78
2022/01/14 10:30:18;;;;;;;;;;;;;;;19.67;39.45;103491.50;4987152;28;19977;-76
2022/01/14 10:32:44;;;;;;;;;;;;;;;19.65;39.33;103499.09;4993625;28;19918;-78
2022/01/14 10:35:12;;;;;;;;;;;;;;;19.66;39.32;103506.25;4992422;28;20013;-78
2022/01/14 10:37:37;;;;;;;;;;;;;;;19.64;39.34;103503.75;4992973;28;19989;-75
2022/01/14 10:40:04;;;;;;;;;;;;;;;19.64;39.20;103490.03;4991200;28;20314;-77
2022/01/14 10:42:31;;;;;;;;;;;;;;;19.63;38.98;103482.91;4986476;28;19926;-76
2022/01/14 10:45:09;;;;;;;;;;;;;;;19.64;39.32;103486.47;4992501;28;19917;-76
2022/01/14 10:47:35;;;;;;;;;;;;;;;19.64;39.12;103490.03;4984019;28;19922;-76
2022/01/14 10:50:00;;;;;;;;;;;;;;;19.65;39.33;103479.91;4973601;28;20363;-76
2022/01/14 10:52:26;;;;;;;;;;;;;;;19.64;39.17;103481.81;4987986;28;19925;-76
2022/01/14 10:54:52;;;;;;;;;;;;;;;19.63;39.24;103480.16;4992094;28;20342;-76
2022/01/14 10:57:18;;;;;;;;;;;;;;;19.62;39.07;103464.75;4987115;28;19972;-76
2022/01/14 10:59:43;;;;;;;;;;;;;;;19.63;39.00;103462.84;4988431;28;19925;-76
2022/01/14 11:02:27;;;;;;;;;;;;;;;19.62;39.10;103459.28;4989140;28;19921;-76
2022/01/14 11:05:01;;;;;;;;;;;;;;;19.61;38.94;103456.78;4978450;28;19984;-76
2022/01/14 11:07:27;;;;;;;;;;;;;;;19.60;39.00;103463.31;4985334;28;20445;-76
2022/01/14 11:09:52;;;;;;;;;;;;;;;19.60;39.02;103455.09;4990325;28;19925;-76
2022/01/14 11:12:18;;;;;;;;;;;;;;;19.60;38.84;103466.06;4990648;28;19929;-76
2022/01/14 11:14:43;;;;;;;;;;;;;;;19.59;38.87;103453.44;4992919;28;19922;-76
2022/01/14 11:17:09;;;;;;;;;;;;;;;19.59;38.67;103457.00;4989661;28;19972;-76
2022/01/14 11:19:35;;;;;;;;;;;;;;;19.59;38.90;103457.00;5002442;28;19968;-75
2022/01/14 11:24:46;;;;;;;;;;;;;;;19.58;38.57;103440.78;4992206;28;20332;-76
2022/01/14 11:27:16;;;;;;;;;;;;;;;19.57;38.52;103450.91;4989915;28;19922;-77
2022/01/14 11:29:57;;;;;;;;;;;;;;;19.57;38.44;103452.84;4983263;28;19968;-77
2022/01/14 11:32:23;;;;;;;;;;;;;;;19.57;38.62;103444.59;4991661;28;20126;-77
2022/01/14 11:34:50;;;;;;;;;;;;;;;19.56;38.60;103460.22;4981729;28;19941;-76
2022/01/14 11:37:37;;;;;;;;;;;;;;;19.55;38.47;103446.75;4980826;28;19937;-77
2022/01/14 11:40:06;;;;;;;;;;;;;;;19.55;38.37;103442.09;4981987;28;19929;-77
2022/01/14 11:42:37;;;;;;;;;;;;;;;19.55;38.39;103454.97;4984714;28;19929;-77
2022/01/14 11:45:05;;;;;;;;;;;;;;;19.55;38.53;103447.56;4983720;28;20370;-77
2022/01/14 11:47:41;;;;;;;;;;;;;;;19.54;38.53;103445.09;4990833;28;19929;-77
2022/01/14 11:50:27;;;;;;;;;;;;;;;19.54;38.38;103439.59;4988850;28;20024;-77
2022/01/14 11:52:52;;;;;;;;;;;;;;;19.54;38.41;103443.19;5000318;28;19972;-77
2022/01/14 11:55:20;;;;;;;;;;;;;;;19.54;38.31;103447.84;4982189;28;19934;-78
2022/01/14 11:57:49;;;;;;;;;;;;;;;19.52;38.36;103431.59;4968931;28;20426;-78
2022/01/14 12:00:23;;;;;;;;;;;;;;;19.52;38.48;103428.03;4980745;28;19925;-79
2022/01/14 12:02:50;;;;;;;;;;;;;;;19.53;38.45;103444.25;4989607;28;20477;-82
2022/01/14 12:05:16;;;;;;;;;;;;;;;19.53;38.22;103438.78;4989864;28;19945;-79
2022/01/14 12:08:00;;;;;;;;;;;;;;;19.53;38.53;103436.03;4987287;28;19923;-78
2022/01/14 12:10:33;;;;;;;;;;;;;;;19.53;38.08;103437.91;4985967;28;19922;-78
2022/01/14 12:13:22;;;;;;;;;;;;;;;19.54;38.24;103443.19;4984503;28;19965;-83
2022/01/14 12:15:55;;;;;;;;;;;;;;;19.54;38.46;103423.16;4989194;28;20004;-83
2022/01/14 12:18:40;;;;;;;;;;;;;;;19.56;38.18;103421.03;4986628;28;20278;-82
2022/01/14 12:21:06;;;;;;;;;;;;;;;19.59;38.65;103428.75;4927541;28;20466;-83
2022/01/14 12:23:31;;;;;;;;;;;;;;;19.60;38.70;103428.50;4987649;28;20024;-87
2022/01/14 12:26:11;;;;;;;;;;;;;;;19.63;38.83;103418.97;4987962;28;20425;-85
2022/01/14 12:28:36;;;;;;;;;;;;;;;19.64;39.00;103421.47;5007173;28;20366;-82
2022/01/14 12:31:03;;;;;;;;;;;;;;;19.67;38.87;103422.94;4998307;28;19944;-84
2022/01/14 12:33:42;;;;;;;;;;;;;;;19.67;38.87;103415.53;4993274;28;20133;-80
2022/01/14 12:36:10;;;;;;;;;;;;;;;19.70;39.16;103416.16;4988712;28;20294;-82
2022/01/14 12:38:38;;;;;;;;;;;;;;;19.72;39.25;103412.09;4996555;28;19926;-80
2022/01/14 12:41:03;;;;;;;;;;;;;;;19.73;39.25;103404.69;4998901;28;19921;-80
2022/01/14 12:43:30;;;;;;;;;;;;;;;19.73;39.42;103405.56;4985774;28;20458;-80
2022/01/14 12:46:24;;;;;;;;;;;;;;;19.75;39.35;103406.13;4997397;28;19976;-84
2022/01/14 12:48:56;;;;;;;;;;;;;;;19.77;39.40;103390.25;5007373;28;19933;-79
2022/01/14 12:51:21;;;;;;;;;;;;;;;19.78;39.64;103397.44;4996346;28;19964;-81
2022/01/14 12:53:47;;;;;;;;;;;;;;;19.80;39.60;103413.63;4985890;28;19965;-82
2022/01/14 12:56:15;;;;;;;;;;;;;;;19.80;39.57;103403.50;4971548;28;19980;-82